Terminal Aerodrome Forecast
Issued by NWS

Home | Current Version | Previous Version | Text Only | Print | Product List | Glossary On
Versions: 1 2 3 4 5 6 7 8 9 10 11 12 13 14 15 16 17
000
FTUS41 KBOX 250529
TAFHYA
TAF
KHYA 250529Z 2506/2606 06006KT P6SM BKN250
     FM251100 08011G21KT P6SM VCSH OVC035
     FM251300 08012G20KT 5SM -RA BR OVC015
     FM252000 09012G19KT 2SM BR VCSH OVC008
     FM260100 10009KT 1 1/2SM -RA BR OVC003
     FM260500 14009KT 1SM -RA BR OVC003=

USA.gov is the U.S. government's official web portal to all federal, state and local government web resources and services.